sensor_id;sensor_type;location;lat;lon;timestamp;temperature;humidity
52731;DHT22;38624;53.242;6.974;2022-12-18T00:01:31;-2.70;99.90
52731;DHT22;38624;53.242;6.974;2022-12-18T00:03:58;-2.80;99.90
52731;DHT22;38624;53.242;6.974;2022-12-18T00:06:25;-2.80;99.90
52731;DHT22;38624;53.242;6.974;2022-12-18T00:08:51;-2.00;99.90
52731;DHT22;38624;53.242;6.974;2022-12-18T00:11:17;-2.80;99.90
52731;DHT22;38624;53.242;6.974;2022-12-18T00:13:44;-2.80;99.90
52731;DHT22;38624;53.242;6.974;2022-12-18T00:16:11;-2.70;99.90
52731;DHT22;38624;53.242;6.974;2022-12-18T00:18:36;-2.80;99.90
52731;DHT22;38624;53.242;6.974;2022-12-18T00:21:04;-2.80;99.90
52731;DHT22;38624;53.242;6.974;2022-12-18T00:23:30;-2.80;99.90
52731;DHT22;38624;53.242;6.974;2022-12-18T00:26:02;-2.70;99.90
52731;DHT22;38624;53.242;6.974;2022-12-18T00:28:28;-2.70;99.90
52731;DHT22;38624;53.242;6.974;2022-12-18T00:31:01;-2.70;99.90
52731;DHT22;38624;53.242;6.974;2022-12-18T00:33:27;-2.70;99.90
52731;DHT22;38624;53.242;6.974;2022-12-18T00:35:52;-2.70;99.90
52731;DHT22;38624;53.242;6.974;2022-12-18T00:38:18;-2.80;99.90
52731;DHT22;38624;53.242;6.974;2022-12-18T00:40:43;-2.80;99.90
52731;DHT22;38624;53.242;6.974;2022-12-18T00:43:09;-1.30;99.90
52731;DHT22;38624;53.242;6.974;2022-12-18T00:45:34;-2.90;99.90
52731;DHT22;38624;53.242;6.974;2022-12-18T00:48:00;-2.90;99.90
52731;DHT22;38624;53.242;6.974;2022-12-18T00:50:25;-2.90;99.90
52731;DHT22;38624;53.242;6.974;2022-12-18T00:52:51;-2.90;99.90
52731;DHT22;38624;53.242;6.974;2022-12-18T00:55:17;-3.00;99.90
52731;DHT22;38624;53.242;6.974;2022-12-18T00:57:43;-3.00;99.90
52731;DHT22;38624;53.242;6.974;2022-12-18T01:00:10;-3.10;99.90
52731;DHT22;38624;53.242;6.974;2022-12-18T01:02:36;-3.10;99.90
52731;DHT22;38624;53.242;6.974;2022-12-18T01:05:02;-2.90;99.90
52731;DHT22;38624;53.242;6.974;2022-12-18T01:07:27;-3.10;99.90
52731;DHT22;38624;53.242;6.974;2022-12-18T01:09:53;-3.30;99.90
52731;DHT22;38624;53.242;6.974;2022-12-18T01:12:18;-3.20;99.90
52731;DHT22;38624;53.242;6.974;2022-12-18T01:14:44;-3.30;99.90
52731;DHT22;38624;53.242;6.974;2022-12-18T01:17:10;-3.30;99.90
52731;DHT22;38624;53.242;6.974;2022-12-18T01:19:35;-3.20;99.90
52731;DHT22;38624;53.242;6.974;2022-12-18T01:22:01;-3.20;99.90
52731;DHT22;38624;53.242;6.974;2022-12-18T01:24:26;-3.20;99.90
52731;DHT22;38624;53.242;6.974;2022-12-18T01:26:52;-3.30;99.90
52731;DHT22;38624;53.242;6.974;2022-12-18T01:29:17;-3.30;99.90
52731;DHT22;38624;53.242;6.974;2022-12-18T01:31:43;-3.30;99.90
52731;DHT22;38624;53.242;6.974;2022-12-18T01:34:09;-3.40;99.90
52731;DHT22;38624;53.242;6.974;2022-12-18T01:36:35;-3.40;99.90
52731;DHT22;38624;53.242;6.974;2022-12-18T01:39:05;-3.50;99.90
52731;DHT22;38624;53.242;6.974;2022-12-18T01:41:32;-3.50;99.90
52731;DHT22;38624;53.242;6.974;2022-12-18T01:47:01;-3.50;99.90
52731;DHT22;38624;53.242;6.974;2022-12-18T01:49:26;-3.60;99.90
52731;DHT22;38624;53.242;6.974;2022-12-18T01:51:52;-3.60;99.90
52731;DHT22;38624;53.242;6.974;2022-12-18T01:54:17;-3.70;99.90
52731;DHT22;38624;53.242;6.974;2022-12-18T01:56:43;-3.70;99.90
52731;DHT22;38624;53.242;6.974;2022-12-18T01:59:09;-3.90;99.90
52731;DHT22;38624;53.242;6.974;2022-12-18T02:01:35;-3.80;99.90
52731;DHT22;38624;53.242;6.974;2022-12-18T02:04:19;-3.80;99.90
52731;DHT22;38624;53.242;6.974;2022-12-18T02:06:45;-3.70;99.90
52731;DHT22;38624;53.242;6.974;2022-12-18T02:09:15;-3.70;99.90
52731;DHT22;38624;53.242;6.974;2022-12-18T02:11:46;-3.70;99.90
52731;DHT22;38624;53.242;6.974;2022-12-18T02:14:20;-3.80;99.90
52731;DHT22;38624;53.242;6.974;2022-12-18T02:19:20;-3.90;99.90
52731;DHT22;38624;53.242;6.974;2022-12-18T02:21:58;-3.80;99.90
52731;DHT22;38624;53.242;6.974;2022-12-18T02:24:38;-3.90;99.90
52731;DHT22;38624;53.242;6.974;2022-12-18T02:27:09;-4.00;99.90
52731;DHT22;38624;53.242;6.974;2022-12-18T02:29:50;-3.90;99.90
52731;DHT22;38624;53.242;6.974;2022-12-18T02:32:18;-4.00;99.90
52731;DHT22;38624;53.242;6.974;2022-12-18T02:34:45;-4.20;99.90
52731;DHT22;38624;53.242;6.974;2022-12-18T02:37:12;-4.10;99.90
52731;DHT22;38624;53.242;6.974;2022-12-18T02:39:38;-3.40;99.90
52731;DHT22;38624;53.242;6.974;2022-12-18T02:42:05;-4.00;99.90
52731;DHT22;38624;53.242;6.974;2022-12-18T02:44:35;-4.00;99.90
52731;DHT22;38624;53.242;6.974;2022-12-18T02:47:00;-4.00;99.90
52731;DHT22;38624;53.242;6.974;2022-12-18T02:52:09;-4.10;99.90
52731;DHT22;38624;53.242;6.974;2022-12-18T02:57:20;-4.60;99.90
52731;DHT22;38624;53.242;6.974;2022-12-18T03:00:30;-4.80;99.90
52731;DHT22;38624;53.242;6.974;2022-12-18T03:02:41;-4.90;99.90
52731;DHT22;38624;53.242;6.974;2022-12-18T03:07:34;-5.20;99.90
52731;DHT22;38624;53.242;6.974;2022-12-18T03:10:00;-5.30;99.90
52731;DHT22;38624;53.242;6.974;2022-12-18T03:12:30;-5.50;99.90
52731;DHT22;38624;53.242;6.974;2022-12-18T03:15:10;-5.60;99.90
52731;DHT22;38624;53.242;6.974;2022-12-18T03:17:38;-5.70;99.90
52731;DHT22;38624;53.242;6.974;2022-12-18T03:20:07;-5.80;99.90
52731;DHT22;38624;53.242;6.974;2022-12-18T03:22:35;-5.80;99.90
52731;DHT22;38624;53.242;6.974;2022-12-18T03:25:03;-5.80;99.90
52731;DHT22;38624;53.242;6.974;2022-12-18T03:27:29;-5.70;99.90
52731;DHT22;38624;53.242;6.974;2022-12-18T03:30:00;-5.70;99.90
52731;DHT22;38624;53.242;6.974;2022-12-18T03:33:05;-5.70;99.90
52731;DHT22;38624;53.242;6.974;2022-12-18T03:35:26;-5.80;99.90
52731;DHT22;38624;53.242;6.974;2022-12-18T03:37:53;-5.80;99.90
52731;DHT22;38624;53.242;6.974;2022-12-18T03:40:20;-5.90;99.90
52731;DHT22;38624;53.242;6.974;2022-12-18T03:42:51;-5.90;99.90
52731;DHT22;38624;53.242;6.974;2022-12-18T03:45:26;-5.90;99.90
52731;DHT22;38624;53.242;6.974;2022-12-18T03:50:46;-5.90;99.90
52731;DHT22;38624;53.242;6.974;2022-12-18T03:53:17;-5.90;99.90
52731;DHT22;38624;53.242;6.974;2022-12-18T03:55:43;-6.00;99.90
52731;DHT22;38624;53.242;6.974;2022-12-18T03:58:10;-6.00;99.90
52731;DHT22;38624;53.242;6.974;2022-12-18T04:00:38;-6.00;99.90
52731;DHT22;38624;53.242;6.974;2022-12-18T04:03:04;-6.00;99.90
52731;DHT22;38624;53.242;6.974;2022-12-18T04:05:30;-6.10;99.90
52731;DHT22;38624;53.242;6.974;2022-12-18T04:07:56;-6.20;99.90
52731;DHT22;38624;53.242;6.974;2022-12-18T04:10:22;-6.30;99.90
52731;DHT22;38624;53.242;6.974;2022-12-18T04:12:47;-6.30;99.90
52731;DHT22;38624;53.242;6.974;2022-12-18T04:15:13;-6.40;99.90
52731;DHT22;38624;53.242;6.974;2022-12-18T04:17:40;-6.40;99.90
52731;DHT22;38624;53.242;6.974;2022-12-18T04:20:08;-6.40;99.90
52731;DHT22;38624;53.242;6.974;2022-12-18T04:22:34;-6.40;99.90
52731;DHT22;38624;53.242;6.974;2022-12-18T04:25:00;-6.60;99.90
52731;DHT22;38624;53.242;6.974;2022-12-18T04:27:26;-6.60;99.90
52731;DHT22;38624;53.242;6.974;2022-12-18T04:29:51;-6.70;99.90
52731;DHT22;38624;53.242;6.974;2022-12-18T04:32:17;-6.60;99.90
52731;DHT22;38624;53.242;6.974;2022-12-18T04:34:42;-6.60;99.90
52731;DHT22;38624;53.242;6.974;2022-12-18T04:37:08;-6.70;99.90
52731;DHT22;38624;53.242;6.974;2022-12-18T04:39:33;-6.70;99.90
52731;DHT22;38624;53.242;6.974;2022-12-18T04:41:59;-6.70;99.90
52731;DHT22;38624;53.242;6.974;2022-12-18T04:44:24;-6.70;99.90
52731;DHT22;38624;53.242;6.974;2022-12-18T04:46:50;-6.80;99.90
52731;DHT22;38624;53.242;6.974;2022-12-18T04:49:16;-6.80;99.90
52731;DHT22;38624;53.242;6.974;2022-12-18T04:51:41;-6.70;99.90
52731;DHT22;38624;53.242;6.974;2022-12-18T04:54:07;-6.80;99.90
52731;DHT22;38624;53.242;6.974;2022-12-18T04:56:32;-6.90;99.90
52731;DHT22;38624;53.242;6.974;2022-12-18T04:58:58;-6.90;99.90
52731;DHT22;38624;53.242;6.974;2022-12-18T05:01:23;-6.90;99.90
52731;DHT22;38624;53.242;6.974;2022-12-18T05:03:50;-6.90;99.90
52731;DHT22;38624;53.242;6.974;2022-12-18T05:06:16;-7.00;99.90
52731;DHT22;38624;53.242;6.974;2022-12-18T05:08:41;-7.00;99.90
52731;DHT22;38624;53.242;6.974;2022-12-18T05:11:08;-7.10;99.90
52731;DHT22;38624;53.242;6.974;2022-12-18T05:13:34;-7.10;99.90
52731;DHT22;38624;53.242;6.974;2022-12-18T05:16:00;-7.10;99.90
52731;DHT22;38624;53.242;6.974;2022-12-18T05:18:26;-7.10;99.90
52731;DHT22;38624;53.242;6.974;2022-12-18T05:20:52;-7.10;99.90
52731;DHT22;38624;53.242;6.974;2022-12-18T05:23:18;-7.10;99.90
52731;DHT22;38624;53.242;6.974;2022-12-18T05:25:47;-7.10;99.90
52731;DHT22;38624;53.242;6.974;2022-12-18T05:28:12;-7.10;99.90
52731;DHT22;38624;53.242;6.974;2022-12-18T05:30:38;-7.20;99.90
52731;DHT22;38624;53.242;6.974;2022-12-18T05:33:03;-7.20;99.90
52731;DHT22;38624;53.242;6.974;2022-12-18T05:35:29;-7.20;99.90
52731;DHT22;38624;53.242;6.974;2022-12-18T05:37:54;-7.20;99.90
52731;DHT22;38624;53.242;6.974;2022-12-18T05:40:20;-7.20;99.90
52731;DHT22;38624;53.242;6.974;2022-12-18T05:42:45;-7.20;99.90
52731;DHT22;38624;53.242;6.974;2022-12-18T05:45:11;-7.20;99.90
52731;DHT22;38624;53.242;6.974;2022-12-18T05:47:36;-7.20;99.90
52731;DHT22;38624;53.242;6.974;2022-12-18T05:50:02;-7.20;99.90
52731;DHT22;38624;53.242;6.974;2022-12-18T05:52:28;-7.20;99.90
52731;DHT22;38624;53.242;6.974;2022-12-18T05:54:53;-7.20;99.90
52731;DHT22;38624;53.242;6.974;2022-12-18T05:57:19;-7.20;99.90
52731;DHT22;38624;53.242;6.974;2022-12-18T05:59:45;-7.20;99.90
52731;DHT22;38624;53.242;6.974;2022-12-18T06:02:10;-7.20;99.90
52731;DHT22;38624;53.242;6.974;2022-12-18T06:04:36;-7.20;99.90
52731;DHT22;38624;53.242;6.974;2022-12-18T06:07:02;-7.20;99.90
52731;DHT22;38624;53.242;6.974;2022-12-18T06:09:28;-7.20;99.90
52731;DHT22;38624;53.242;6.974;2022-12-18T06:11:54;-7.20;99.90
52731;DHT22;38624;53.242;6.974;2022-12-18T06:14:19;-7.20;99.90
52731;DHT22;38624;53.242;6.974;2022-12-18T06:16:45;-7.20;99.90
52731;DHT22;38624;53.242;6.974;2022-12-18T06:19:13;-7.20;99.90
52731;DHT22;38624;53.242;6.974;2022-12-18T06:21:39;-7.20;99.90
52731;DHT22;38624;53.242;6.974;2022-12-18T06:24:05;-7.30;99.90
52731;DHT22;38624;53.242;6.974;2022-12-18T06:26:30;-7.30;99.90
52731;DHT22;38624;53.242;6.974;2022-12-18T06:28:56;-7.30;99.90
52731;DHT22;38624;53.242;6.974;2022-12-18T06:31:22;-6.90;99.90
52731;DHT22;38624;53.242;6.974;2022-12-18T06:33:47;-7.40;99.90
52731;DHT22;38624;53.242;6.974;2022-12-18T06:36:13;-7.40;99.90
52731;DHT22;38624;53.242;6.974;2022-12-18T06:38:40;-7.40;99.90
52731;DHT22;38624;53.242;6.974;2022-12-18T06:43:57;-7.30;99.90
52731;DHT22;38624;53.242;6.974;2022-12-18T06:46:23;-7.30;99.90
52731;DHT22;38624;53.242;6.974;2022-12-18T06:48:49;-7.30;99.90
52731;DHT22;38624;53.242;6.974;2022-12-18T06:51:16;-7.40;99.90
52731;DHT22;38624;53.242;6.974;2022-12-18T06:53:41;-7.40;99.90
52731;DHT22;38624;53.242;6.974;2022-12-18T06:56:07;-7.40;99.90
52731;DHT22;38624;53.242;6.974;2022-12-18T06:58:33;-7.50;99.90
52731;DHT22;38624;53.242;6.974;2022-12-18T07:01:05;-7.50;99.90
52731;DHT22;38624;53.242;6.974;2022-12-18T07:03:31;-7.50;99.90
52731;DHT22;38624;53.242;6.974;2022-12-18T07:05:56;-7.60;99.90
52731;DHT22;38624;53.242;6.974;2022-12-18T07:08:22;-7.60;99.90
52731;DHT22;38624;53.242;6.974;2022-12-18T07:10:48;-7.60;99.90
52731;DHT22;38624;53.242;6.974;2022-12-18T07:13:16;-7.60;99.90
52731;DHT22;38624;53.242;6.974;2022-12-18T07:15:42;-7.60;99.90
52731;DHT22;38624;53.242;6.974;2022-12-18T07:18:08;-7.60;99.90
52731;DHT22;38624;53.242;6.974;2022-12-18T07:20:33;-7.50;99.90
52731;DHT22;38624;53.242;6.974;2022-12-18T07:23:01;-7.60;99.90
52731;DHT22;38624;53.242;6.974;2022-12-18T07:25:26;-7.60;99.90
52731;DHT22;38624;53.242;6.974;2022-12-18T07:27:52;-7.60;99.90
52731;DHT22;38624;53.242;6.974;2022-12-18T07:30:18;-7.60;99.90
52731;DHT22;38624;53.242;6.974;2022-12-18T07:32:43;-7.60;99.90
52731;DHT22;38624;53.242;6.974;2022-12-18T07:35:09;-7.60;99.90
52731;DHT22;38624;53.242;6.974;2022-12-18T07:37:34;-7.60;99.90
52731;DHT22;38624;53.242;6.974;2022-12-18T07:40:00;-7.60;99.90
52731;DHT22;38624;53.242;6.974;2022-12-18T07:42:26;-7.60;99.90
52731;DHT22;38624;53.242;6.974;2022-12-18T07:44:58;-7.60;99.90
52731;DHT22;38624;53.242;6.974;2022-12-18T07:47:23;-7.60;99.90
52731;DHT22;38624;53.242;6.974;2022-12-18T07:49:49;-7.60;99.90
52731;DHT22;38624;53.242;6.974;2022-12-18T07:52:15;-7.30;99.90
52731;DHT22;38624;53.242;6.974;2022-12-18T07:54:40;-7.60;99.90
52731;DHT22;38624;53.242;6.974;2022-12-18T07:57:06;-7.60;99.90
52731;DHT22;38624;53.242;6.974;2022-12-18T07:59:32;-7.60;99.90
52731;DHT22;38624;53.242;6.974;2022-12-18T08:01:57;-7.50;99.90
52731;DHT22;38624;53.242;6.974;2022-12-18T08:04:24;-7.50;99.90
52731;DHT22;38624;53.242;6.974;2022-12-18T08:06:49;-7.40;99.90
52731;DHT22;38624;53.242;6.974;2022-12-18T08:09:15;-7.30;99.90
52731;DHT22;38624;53.242;6.974;2022-12-18T08:11:41;-7.30;99.90
52731;DHT22;38624;53.242;6.974;2022-12-18T08:14:06;-7.20;99.90
52731;DHT22;38624;53.242;6.974;2022-12-18T08:16:32;-7.20;99.90
52731;DHT22;38624;53.242;6.974;2022-12-18T08:18:57;-7.10;99.90
52731;DHT22;38624;53.242;6.974;2022-12-18T08:21:24;-7.10;99.90
52731;DHT22;38624;53.242;6.974;2022-12-18T08:23:50;-7.10;99.90
52731;DHT22;38624;53.242;6.974;2022-12-18T08:26:17;-7.00;99.90
52731;DHT22;38624;53.242;6.974;2022-12-18T08:28:42;-7.00;99.90
52731;DHT22;38624;53.242;6.974;2022-12-18T08:31:08;-7.00;99.90
52731;DHT22;38624;53.242;6.974;2022-12-18T08:33:34;-7.00;99.90
52731;DHT22;38624;53.242;6.974;2022-12-18T08:36:00;-6.90;99.90
52731;DHT22;38624;53.242;6.974;2022-12-18T08:38:26;-6.90;99.90
52731;DHT22;38624;53.242;6.974;2022-12-18T08:41:01;-6.80;99.90
52731;DHT22;38624;53.242;6.974;2022-12-18T08:43:28;-6.70;99.90
52731;DHT22;38624;53.242;6.974;2022-12-18T08:46:11;-6.70;99.90
52731;DHT22;38624;53.242;6.974;2022-12-18T08:48:37;-6.60;99.90
52731;DHT22;38624;53.242;6.974;2022-12-18T08:51:03;-6.50;99.90
52731;DHT22;38624;53.242;6.974;2022-12-18T08:53:28;-5.70;99.90
52731;DHT22;38624;53.242;6.974;2022-12-18T08:55:55;-6.40;99.90
52731;DHT22;38624;53.242;6.974;2022-12-18T08:58:21;-5.90;99.90
52731;DHT22;38624;53.242;6.974;2022-12-18T09:00:46;-6.30;99.90
52731;DHT22;38624;53.242;6.974;2022-12-18T09:03:13;-6.30;99.90
52731;DHT22;38624;53.242;6.974;2022-12-18T09:05:38;-6.20;99.90
52731;DHT22;38624;53.242;6.974;2022-12-18T09:08:04;-6.20;99.90
52731;DHT22;38624;53.242;6.974;2022-12-18T09:10:29;-6.10;99.90
52731;DHT22;38624;53.242;6.974;2022-12-18T09:12:55;-6.10;99.90
52731;DHT22;38624;53.242;6.974;2022-12-18T09:15:21;-6.00;99.90
52731;DHT22;38624;53.242;6.974;2022-12-18T09:17:47;-6.00;99.90
52731;DHT22;38624;53.242;6.974;2022-12-18T09:20:13;-5.90;99.90
52731;DHT22;38624;53.242;6.974;2022-12-18T09:22:38;-5.80;99.90
52731;DHT22;38624;53.242;6.974;2022-12-18T09:25:04;-5.70;99.90
52731;DHT22;38624;53.242;6.974;2022-12-18T09:27:33;-5.60;99.90
52731;DHT22;38624;53.242;6.974;2022-12-18T09:29:58;-5.60;99.90
52731;DHT22;38624;53.242;6.974;2022-12-18T09:32:24;-5.50;99.90
52731;DHT22;38624;53.242;6.974;2022-12-18T09:34:50;-4.50;99.90
52731;DHT22;38624;53.242;6.974;2022-12-18T09:37:15;-5.30;99.90
52731;DHT22;38624;53.242;6.974;2022-12-18T09:39:41;-5.20;99.90
52731;DHT22;38624;53.242;6.974;2022-12-18T09:42:08;-5.10;99.90
52731;DHT22;38624;53.242;6.974;2022-12-18T09:44:40;-5.10;99.90
52731;DHT22;38624;53.242;6.974;2022-12-18T09:47:08;-5.00;99.90
52731;DHT22;38624;53.242;6.974;2022-12-18T09:49:37;-4.90;99.90
52731;DHT22;38624;53.242;6.974;2022-12-18T09:52:05;-4.50;99.90
52731;DHT22;38624;53.242;6.974;2022-12-18T09:54:40;-4.70;99.90
52731;DHT22;38624;53.242;6.974;2022-12-18T09:57:06;-4.60;99.90
52731;DHT22;38624;53.242;6.974;2022-12-18T09:59:33;-4.60;99.90
52731;DHT22;38624;53.242;6.974;2022-12-18T10:01:59;-2.80;99.90
52731;DHT22;38624;53.242;6.974;2022-12-18T10:04:25;-4.60;99.90
52731;DHT22;38624;53.242;6.974;2022-12-18T10:06:58;-4.50;99.90
52731;DHT22;38624;53.242;6.974;2022-12-18T10:09:30;-4.50;99.90
52731;DHT22;38624;53.242;6.974;2022-12-18T10:12:32;-3.60;99.90
52731;DHT22;38624;53.242;6.974;2022-12-18T10:14:53;-4.40;99.90
52731;DHT22;38624;53.242;6.974;2022-12-18T10:17:24;-4.30;99.90
52731;DHT22;38624;53.242;6.974;2022-12-18T10:20:02;-4.30;99.90
52731;DHT22;38624;53.242;6.974;2022-12-18T10:25:18;-4.00;99.90
52731;DHT22;38624;53.242;6.974;2022-12-18T10:27:45;-3.80;99.90
52731;DHT22;38624;53.242;6.974;2022-12-18T10:30:12;-3.60;99.90
52731;DHT22;38624;53.242;6.974;2022-12-18T10:32:38;-3.40;99.90
52731;DHT22;38624;53.242;6.974;2022-12-18T10:35:04;-3.20;99.90
52731;DHT22;38624;53.242;6.974;2022-12-18T10:37:30;-3.00;99.90
52731;DHT22;38624;53.242;6.974;2022-12-18T10:43:13;-2.80;99.90
52731;DHT22;38624;53.242;6.974;2022-12-18T10:45:40;-2.70;99.90
52731;DHT22;38624;53.242;6.974;2022-12-18T10:48:17;-2.60;99.90
52731;DHT22;38624;53.242;6.974;2022-12-18T10:50:43;-2.50;99.90
52731;DHT22;38624;53.242;6.974;2022-12-18T10:53:13;-2.50;99.90
52731;DHT22;38624;53.242;6.974;2022-12-18T10:55:40;-2.50;99.90
52731;DHT22;38624;53.242;6.974;2022-12-18T10:58:25;-2.50;99.90
52731;DHT22;38624;53.242;6.974;2022-12-18T11:06:18;-2.20;99.90
52731;DHT22;38624;53.242;6.974;2022-12-18T11:08:56;-2.40;99.90
52731;DHT22;38624;53.242;6.974;2022-12-18T11:11:22;-2.40;99.90
52731;DHT22;38624;53.242;6.974;2022-12-18T11:13:57;-2.40;99.90
52731;DHT22;38624;53.242;6.974;2022-12-18T11:16:24;-2.40;99.90
52731;DHT22;38624;53.242;6.974;2022-12-18T11:18:50;-2.30;99.90
52731;DHT22;38624;53.242;6.974;2022-12-18T11:21:15;-2.30;99.90
52731;DHT22;38624;53.242;6.974;2022-12-18T11:23:47;-2.30;99.90
52731;DHT22;38624;53.242;6.974;2022-12-18T11:26:14;-2.30;99.90
52731;DHT22;38624;53.242;6.974;2022-12-18T11:28:41;-1.70;99.90
52731;DHT22;38624;53.242;6.974;2022-12-18T11:31:29;-2.20;99.90
52731;DHT22;38624;53.242;6.974;2022-12-18T11:36:19;-2.20;99.90
52731;DHT22;38624;53.242;6.974;2022-12-18T11:38:46;-2.10;99.90
52731;DHT22;38624;53.242;6.974;2022-12-18T11:44:11;-2.10;99.90
52731;DHT22;38624;53.242;6.974;2022-12-18T11:46:41;-2.10;99.90
52731;DHT22;38624;53.242;6.974;2022-12-18T11:49:28;-2.10;99.90
52731;DHT22;38624;53.242;6.974;2022-12-18T11:54:23;-1.90;99.90
52731;DHT22;38624;53.242;6.974;2022-12-18T11:56:56;-1.90;99.90
52731;DHT22;38624;53.242;6.974;2022-12-18T11:59:36;-1.90;99.90
52731;DHT22;38624;53.242;6.974;2022-12-18T12:07:25;-1.90;99.90
52731;DHT22;38624;53.242;6.974;2022-12-18T12:15:21;-1.90;99.90
52731;DHT22;38624;53.242;6.974;2022-12-18T12:18:01;-1.90;99.90
52731;DHT22;38624;53.242;6.974;2022-12-18T12:20:40;-1.90;99.90
52731;DHT22;38624;53.242;6.974;2022-12-18T12:23:22;-1.90;99.90
52731;DHT22;38624;53.242;6.974;2022-12-18T12:26:14;-1.90;99.90
52731;DHT22;38624;53.242;6.974;2022-12-18T12:31:22;-1.80;99.90
52731;DHT22;38624;53.242;6.974;2022-12-18T12:34:05;-1.90;99.90
52731;DHT22;38624;53.242;6.974;2022-12-18T12:39:09;-1.80;99.90
52731;DHT22;38624;53.242;6.974;2022-12-18T12:41:36;-1.80;99.90
52731;DHT22;38624;53.242;6.974;2022-12-18T12:44:25;-1.80;99.90
52731;DHT22;38624;53.242;6.974;2022-12-18T12:46:52;-1.80;99.90
52731;DHT22;38624;53.242;6.974;2022-12-18T12:49:20;-1.80;99.90
52731;DHT22;38624;53.242;6.974;2022-12-18T12:51:48;-1.10;99.90
52731;DHT22;38624;53.242;6.974;2022-12-18T12:54:18;-1.80;99.90
52731;DHT22;38624;53.242;6.974;2022-12-18T12:59:15;-1.70;99.90
52731;DHT22;38624;53.242;6.974;2022-12-18T13:01:55;-1.70;99.90
52731;DHT22;38624;53.242;6.974;2022-12-18T13:04:44;-1.70;99.90
52731;DHT22;38624;53.242;6.974;2022-12-18T13:07:14;-1.70;99.90
52731;DHT22;38624;53.242;6.974;2022-12-18T13:12:25;-1.70;99.90
52731;DHT22;38624;53.242;6.974;2022-12-18T13:15:13;-1.70;99.90
52731;DHT22;38624;53.242;6.974;2022-12-18T13:17:44;-1.70;99.90
52731;DHT22;38624;53.242;6.974;2022-12-18T13:20:11;-1.70;99.90
52731;DHT22;38624;53.242;6.974;2022-12-18T13:22:45;-1.70;99.90
52731;DHT22;38624;53.242;6.974;2022-12-18T13:27:57;-1.60;99.90
52731;DHT22;38624;53.242;6.974;2022-12-18T13:35:41;-1.60;99.90
52731;DHT22;38624;53.242;6.974;2022-12-18T13:40:57;-1.60;99.90
52731;DHT22;38624;53.242;6.974;2022-12-18T13:46:02;-1.70;99.90
52731;DHT22;38624;53.242;6.974;2022-12-18T13:48:29;-1.70;99.90
52731;DHT22;38624;53.242;6.974;2022-12-18T13:50:59;-0.90;99.90
52731;DHT22;38624;53.242;6.974;2022-12-18T13:53:27;-1.80;99.90
52731;DHT22;38624;53.242;6.974;2022-12-18T13:55:53;-1.80;99.90
52731;DHT22;38624;53.242;6.974;2022-12-18T13:58:19;-1.90;99.90
52731;DHT22;38624;53.242;6.974;2022-12-18T14:00:44;-1.90;99.90
52731;DHT22;38624;53.242;6.974;2022-12-18T14:03:21;-2.00;99.90
52731;DHT22;38624;53.242;6.974;2022-12-18T14:05:52;-2.00;99.90
52731;DHT22;38624;53.242;6.974;2022-12-18T14:08:18;-2.00;99.90
52731;DHT22;38624;53.242;6.974;2022-12-18T14:10:45;-2.10;99.90
52731;DHT22;38624;53.242;6.974;2022-12-18T14:13:24;-0.20;99.90
52731;DHT22;38624;53.242;6.974;2022-12-18T14:15:50;-1.80;99.90
52731;DHT22;38624;53.242;6.974;2022-12-18T14:20:44;-2.20;99.90
52731;DHT22;38624;53.242;6.974;2022-12-18T14:25:54;-2.30;99.90
52731;DHT22;38624;53.242;6.974;2022-12-18T14:28:20;-2.30;99.90
52731;DHT22;38624;53.242;6.974;2022-12-18T14:30:47;-2.40;99.90
52731;DHT22;38624;53.242;6.974;2022-12-18T14:38:27;-2.50;99.90
52731;DHT22;38624;53.242;6.974;2022-12-18T14:41:00;-2.50;99.90
52731;DHT22;38624;53.242;6.974;2022-12-18T14:43:27;-2.50;99.90
52731;DHT22;38624;53.242;6.974;2022-12-18T14:45:53;-2.60;99.90
52731;DHT22;38624;53.242;6.974;2022-12-18T14:50:53;-2.60;99.90
52731;DHT22;38624;53.242;6.974;2022-12-18T14:53:21;-2.70;99.90
52731;DHT22;38624;53.242;6.974;2022-12-18T14:55:48;-1.40;99.90
52731;DHT22;38624;53.242;6.974;2022-12-18T14:58:14;-2.70;99.90
52731;DHT22;38624;53.242;6.974;2022-12-18T15:00:41;-1.20;99.90
52731;DHT22;38624;53.242;6.974;2022-12-18T15:03:07;-2.70;99.90
52731;DHT22;38624;53.242;6.974;2022-12-18T15:05:33;-2.80;99.90
52731;DHT22;38624;53.242;6.974;2022-12-18T15:08:00;-1.50;99.90
52731;DHT22;38624;53.242;6.974;2022-12-18T15:10:26;-2.70;99.90
52731;DHT22;38624;53.242;6.974;2022-12-18T15:18:02;-2.80;99.90
52731;DHT22;38624;53.242;6.974;2022-12-18T15:20:32;-1.70;99.90
52731;DHT22;38624;53.242;6.974;2022-12-18T15:22:58;-2.80;99.90
52731;DHT22;38624;53.242;6.974;2022-12-18T15:25:27;-2.80;99.90
52731;DHT22;38624;53.242;6.974;2022-12-18T15:27:54;-2.90;99.90
52731;DHT22;38624;53.242;6.974;2022-12-18T15:30:21;-2.90;99.90
52731;DHT22;38624;53.242;6.974;2022-12-18T15:32:47;-2.90;99.90
52731;DHT22;38624;53.242;6.974;2022-12-18T15:35:17;-2.90;99.90
52731;DHT22;38624;53.242;6.974;2022-12-18T15:37:43;-2.90;99.90
52731;DHT22;38624;53.242;6.974;2022-12-18T15:40:12;-2.90;99.90
52731;DHT22;38624;53.242;6.974;2022-12-18T15:42:38;-2.90;99.90
52731;DHT22;38624;53.242;6.974;2022-12-18T15:45:22;-2.90;99.90
52731;DHT22;38624;53.242;6.974;2022-12-18T15:47:48;-2.90;99.90
52731;DHT22;38624;53.242;6.974;2022-12-18T15:50:13;-2.90;99.90
52731;DHT22;38624;53.242;6.974;2022-12-18T15:52:40;-2.90;99.90
52731;DHT22;38624;53.242;6.974;2022-12-18T15:55:16;-2.10;99.90
52731;DHT22;38624;53.242;6.974;2022-12-18T15:58:01;-2.90;99.90
52731;DHT22;38624;53.242;6.974;2022-12-18T16:00:26;-2.90;99.90
52731;DHT22;38624;53.242;6.974;2022-12-18T16:02:52;-2.90;99.90
52731;DHT22;38624;53.242;6.974;2022-12-18T16:05:18;-1.70;99.90
52731;DHT22;38624;53.242;6.974;2022-12-18T16:07:45;-2.90;99.90
52731;DHT22;38624;53.242;6.974;2022-12-18T16:10:11;-1.30;99.90
52731;DHT22;38624;53.242;6.974;2022-12-18T16:12:36;-2.90;99.90
52731;DHT22;38624;53.242;6.974;2022-12-18T16:15:03;-2.90;99.90
52731;DHT22;38624;53.242;6.974;2022-12-18T16:17:29;-2.90;99.90
52731;DHT22;38624;53.242;6.974;2022-12-18T16:19:55;-1.50;99.90
52731;DHT22;38624;53.242;6.974;2022-12-18T16:22:21;-2.90;99.90
52731;DHT22;38624;53.242;6.974;2022-12-18T16:24:47;-1.40;99.90
52731;DHT22;38624;53.242;6.974;2022-12-18T16:27:13;-2.10;99.90
52731;DHT22;38624;53.242;6.974;2022-12-18T16:29:38;-2.90;99.90
52731;DHT22;38624;53.242;6.974;2022-12-18T16:32:04;-2.80;99.90
52731;DHT22;38624;53.242;6.974;2022-12-18T16:34:30;-2.80;99.90
52731;DHT22;38624;53.242;6.974;2022-12-18T16:36:58;-2.80;99.90
52731;DHT22;38624;53.242;6.974;2022-12-18T16:39:24;-2.80;99.90
52731;DHT22;38624;53.242;6.974;2022-12-18T16:41:50;-2.80;99.90
52731;DHT22;38624;53.242;6.974;2022-12-18T16:44:15;-1.40;99.90
52731;DHT22;38624;53.242;6.974;2022-12-18T16:46:41;-2.70;99.90
52731;DHT22;38624;53.242;6.974;2022-12-18T16:49:13;-2.70;99.90
52731;DHT22;38624;53.242;6.974;2022-12-18T16:51:39;-2.70;99.90
52731;DHT22;38624;53.242;6.974;2022-12-18T16:54:05;-2.70;99.90
52731;DHT22;38624;53.242;6.974;2022-12-18T16:56:31;-2.70;99.90
52731;DHT22;38624;53.242;6.974;2022-12-18T16:58:57;-0.90;99.90
52731;DHT22;38624;53.242;6.974;2022-12-18T17:01:23;-2.70;99.90
52731;DHT22;38624;53.242;6.974;2022-12-18T17:03:52;-1.60;99.90
52731;DHT22;38624;53.242;6.974;2022-12-18T17:06:18;-2.60;99.90